Time;durP1;ratioP1;P1;durP2;ratioP2;P2;SDS_P1;SDS_P2;PMS_P1;PMS_P2;Temp;Humidity;BMP_temperature;BMP_pressure;BME280_temperature;BME280_humidity;BME280_pressure;Samples;Min_cycle;Max_cycle;Signal;HPM_P1;HPM_P2
2021/06/17 00:01:22;;;;;;;6.00;5.50;;;27.20;52.30;;;;;;5007208;28;20199;-66
2021/06/17 00:03:53;;;;;;;6.37;5.77;;;27.20;52.40;;;;;;5008163;28;20211;-66
2021/06/17 00:06:21;;;;;;;6.43;5.73;;;27.20;52.40;;;;;;5006896;28;20591;-67
2021/06/17 00:08:49;;;;;;;7.93;6.13;;;27.20;52.40;;;;;;5009174;28;20192;-67
2021/06/17 00:11:20;;;;;;;6.50;5.90;;;27.20;52.40;;;;;;5010872;28;20275;-67
2021/06/17 00:13:53;;;;;;;6.73;5.30;;;27.20;52.40;;;;;;5006777;28;20204;-67
2021/06/17 00:16:22;;;;;;;6.07;5.43;;;27.20;52.40;;;;;;5008618;28;20668;-67
2021/06/17 00:18:56;;;;;;;7.13;5.87;;;27.10;52.40;;;;;;5005912;28;20211;-67
2021/06/17 00:21:26;;;;;;;6.53;5.70;;;27.10;52.40;;;;;;5021096;28;20290;-66
2021/06/17 00:23:55;;;;;;;7.00;5.83;;;27.10;52.40;;;;;;5008060;28;20204;-66
2021/06/17 00:26:26;;;;;;;7.70;5.90;;;27.10;52.40;;;;;;5009556;28;20227;-67
2021/06/17 00:28:55;;;;;;;6.70;6.00;;;27.10;52.30;;;;;;5007894;28;20215;-67
2021/06/17 00:31:23;;;;;;;9.33;6.53;;;27.10;52.40;;;;;;5009909;28;20200;-67
2021/06/17 00:33:53;;;;;;;6.70;6.10;;;27.10;52.30;;;;;;5008154;28;20210;-67
2021/06/17 00:36:23;;;;;;;7.33;6.30;;;27.10;52.30;;;;;;5008089;28;20551;-67
2021/06/17 00:38:50;;;;;;;7.00;6.40;;;27.10;52.30;;;;;;5006509;28;20199;-67
2021/06/17 00:41:19;;;;;;;9.57;6.80;;;27.10;52.30;;;;;;5008476;28;20223;-67
2021/06/17 00:43:48;;;;;;;9.43;6.53;;;27.10;52.30;;;;;;5006150;28;20700;-66
2021/06/17 00:46:20;;;;;;;10.17;6.47;;;27.10;52.30;;;;;;5006864;28;20219;-66
2021/06/17 00:48:48;;;;;;;13.37;6.47;;;27.10;52.20;;;;;;5008579;28;20199;-66
2021/06/17 00:51:16;;;;;;;9.10;6.67;;;27.10;52.20;;;;;;5008320;28;20212;-66
2021/06/17 00:53:44;;;;;;;8.40;7.40;;;27.10;52.20;;;;;;5008026;28;20633;-66
2021/06/17 00:56:14;;;;;;;9.87;6.93;;;27.10;52.10;;;;;;5007192;28;20210;-66
2021/06/17 00:58:44;;;;;;;8.30;7.17;;;27.10;52.10;;;;;;5006423;28;20206;-66
2021/06/17 01:01:11;;;;;;;9.73;7.03;;;27.10;52.10;;;;;;5007362;28;20561;-66
2021/06/17 01:03:42;;;;;;;8.37;6.60;;;27.00;52.00;;;;;;5008918;28;20204;-66
2021/06/17 01:06:13;;;;;;;8.70;7.07;;;27.10;52.10;;;;;;5006918;28;20216;-67
2021/06/17 01:09:03;;;;;;;8.00;7.17;;;27.00;52.00;;;;;;5008337;28;20284;-66
2021/06/17 01:11:54;;;;;;;8.30;6.83;;;27.00;51.90;;;;;;5006621;28;20206;-67
2021/06/17 01:14:29;;;;;;;7.73;6.77;;;27.00;51.90;;;;;;5008389;28;20228;-67
2021/06/17 01:17:05;;;;;;;9.37;7.30;;;27.00;51.90;;;;;;5007425;28;20199;-67
2021/06/17 01:19:50;;;;;;;8.00;7.20;;;27.00;51.90;;;;;;5006818;28;20583;-67
2021/06/17 01:22:52;;;;;;;7.43;6.73;;;27.00;51.90;;;;;;5009144;28;20324;-67
2021/06/17 01:26:08;;;;;;;7.87;6.87;;;27.00;51.80;;;;;;5003805;28;20216;-67
2021/06/17 01:28:46;;;;;;;9.77;6.83;;;27.00;51.80;;;;;;5005689;28;20219;-67
2021/06/17 01:31:19;;;;;;;7.47;6.77;;;27.00;51.70;;;;;;5007789;28;20230;-67
2021/06/17 01:33:57;;;;;;;7.27;6.40;;;27.00;51.70;;;;;;5007171;28;20200;-67
2021/06/17 01:36:39;;;;;;;8.97;7.03;;;26.90;51.60;;;;;;5007755;28;20203;-67
2021/06/17 01:39:13;;;;;;;8.63;6.80;;;27.00;51.60;;;;;;5006312;28;20313;-66
2021/06/17 01:41:48;;;;;;;6.73;6.13;;;26.90;51.50;;;;;;5006556;28;20924;-66
2021/06/17 01:44:22;;;;;;;7.80;7.00;;;27.00;51.60;;;;;;5004114;28;20224;-66
2021/06/17 01:46:53;;;;;;;9.17;6.83;;;26.90;51.50;;;;;;5006912;28;20228;-66
2021/06/17 01:49:24;;;;;;;8.77;6.80;;;27.00;51.50;;;;;;5011099;28;20202;-66
2021/06/17 01:51:56;;;;;;;7.93;7.23;;;26.90;51.50;;;;;;5012906;28;20222;-66
2021/06/17 01:54:30;;;;;;;7.83;7.13;;;26.90;51.50;;;;;;5008452;28;20267;-66
2021/06/17 01:57:00;;;;;;;9.63;6.97;;;27.00;51.50;;;;;;5011962;28;20702;-66
2021/06/17 01:59:32;;;;;;;7.47;6.77;;;26.90;51.50;;;;;;5011144;28;20207;-66
2021/06/17 02:02:02;;;;;;;8.60;7.10;;;26.90;51.50;;;;;;5010485;28;20221;-66
2021/06/17 02:04:35;;;;;;;8.07;7.17;;;26.90;51.50;;;;;;5011810;28;20274;-66
2021/06/17 02:07:05;;;;;;;8.53;7.40;;;26.90;51.50;;;;;;5011155;28;20226;-66
2021/06/17 02:09:34;;;;;;;8.13;6.80;;;26.90;51.50;;;;;;5011718;28;20218;-66
2021/06/17 02:12:06;;;;;;;8.33;7.30;;;26.90;51.50;;;;;;5011001;28;20203;-66
2021/06/17 02:14:35;;;;;;;9.10;6.90;;;26.90;51.50;;;;;;5011229;28;20251;-66
2021/06/17 02:17:07;;;;;;;7.97;7.20;;;26.80;51.50;;;;;;5012165;28;20187;-66
2021/06/17 02:19:50;;;;;;;8.13;7.10;;;26.90;51.50;;;;;;5013053;28;20595;-66
2021/06/17 02:22:22;;;;;;;7.40;6.70;;;26.90;51.50;;;;;;5012049;28;20204;-66
2021/06/17 02:24:54;;;;;;;7.00;6.37;;;26.90;51.50;;;;;;5011948;28;20231;-66
2021/06/17 02:27:29;;;;;;;7.97;7.13;;;26.80;51.50;;;;;;5012886;28;20219;-66
2021/06/17 02:30:10;;;;;;;7.63;6.80;;;26.90;51.50;;;;;;5013983;28;20199;-66
2021/06/17 02:33:09;;;;;;;12.27;7.37;;;26.80;51.50;;;;;;5014246;28;20188;-66
2021/06/17 02:35:43;;;;;;;7.67;6.67;;;26.80;51.50;;;;;;5015918;28;20204;-66
2021/06/17 02:38:15;;;;;;;8.53;7.13;;;26.90;51.60;;;;;;5012704;28;20215;-66
2021/06/17 02:40:47;;;;;;;8.53;7.23;;;26.80;51.50;;;;;;5014478;28;20207;-66
2021/06/17 02:43:21;;;;;;;8.60;7.70;;;26.90;51.70;;;;;;5012262;28;20261;-66
2021/06/17 02:45:51;;;;;;;9.93;7.27;;;26.80;51.60;;;;;;5009497;28;20232;-66
2021/06/17 02:48:21;;;;;;;8.30;7.13;;;26.80;51.70;;;;;;4992156;28;20219;-66
2021/06/17 02:50:51;;;;;;;8.10;7.30;;;26.80;52.10;;;;;;5015296;28;20196;-66
2021/06/17 02:53:21;;;;;;;10.60;7.43;;;26.80;51.60;;;;;;5009074;28;20208;-66
2021/06/17 02:55:53;;;;;;;7.73;7.00;;;26.80;51.70;;;;;;5010454;28;20203;-66
2021/06/17 02:58:41;;;;;;;7.37;6.77;;;26.80;51.70;;;;;;5008910;28;20215;-66
2021/06/17 03:01:25;;;;;;;8.33;7.33;;;26.80;51.80;;;;;;5011752;28;20239;-66
2021/06/17 03:03:59;;;;;;;8.80;7.90;;;26.80;51.80;;;;;;5009213;28;20211;-66
2021/06/17 03:06:38;;;;;;;8.43;7.50;;;26.80;51.90;;;;;;4984158;28;20227;-66
2021/06/17 03:09:19;;;;;;;8.50;7.70;;;26.80;51.90;;;;;;5007415;28;20296;-66
2021/06/17 03:11:49;;;;;;;8.57;7.73;;;26.80;52.00;;;;;;5010527;28;20226;-67
2021/06/17 03:14:24;;;;;;;8.27;7.53;;;26.80;52.00;;;;;;5017303;28;20572;-66
2021/06/17 03:16:57;;;;;;;8.77;7.87;;;26.80;52.00;;;;;;5011153;28;20652;-66
2021/06/17 03:19:26;;;;;;;8.03;7.33;;;26.70;52.00;;;;;;5009202;28;20262;-66
2021/06/17 03:22:16;;;;;;;8.80;7.77;;;26.80;52.20;;;;;;4991568;28;20239;-66
2021/06/17 03:24:51;;;;;;;9.50;7.90;;;26.70;52.20;;;;;;5011001;28;20601;-66
2021/06/17 03:27:23;;;;;;;10.07;7.90;;;26.70;52.20;;;;;;5005932;28;20218;-66
2021/06/17 03:29:55;;;;;;;10.63;7.43;;;26.70;52.20;;;;;;5010385;28;20199;-66
2021/06/17 03:32:26;;;;;;;9.27;7.83;;;26.80;52.40;;;;;;5007318;28;20644;-66
2021/06/17 03:34:59;;;;;;;8.77;7.87;;;26.80;52.40;;;;;;5010556;28;20198;-65
2021/06/17 03:37:30;;;;;;;9.60;8.70;;;26.70;52.40;;;;;;5006632;28;20298;-65
2021/06/17 03:40:02;;;;;;;9.13;7.63;;;26.80;52.50;;;;;;5009968;28;20632;-65
2021/06/17 03:42:33;;;;;;;9.30;8.40;;;26.70;52.50;;;;;;5010333;28;20208;-65
2021/06/17 03:45:06;;;;;;;8.63;7.73;;;26.70;52.60;;;;;;5007655;28;20208;-65
2021/06/17 03:47:37;;;;;;;9.87;8.60;;;26.70;52.70;;;;;;5008834;28;20727;-65
2021/06/17 03:50:11;;;;;;;11.13;8.07;;;26.70;52.80;;;;;;5008577;28;20200;-65
2021/06/17 03:52:44;;;;;;;9.07;8.13;;;26.70;52.90;;;;;;5008006;28;20199;-65
2021/06/17 03:55:15;;;;;;;8.90;8.10;;;26.70;53.50;;;;;;5003328;28;20222;-66
2021/06/17 03:57:45;;;;;;;9.67;8.77;;;26.70;53.00;;;;;;5009012;28;20687;-66
2021/06/17 04:00:15;;;;;;;9.13;8.20;;;26.70;53.10;;;;;;5006144;28;20224;-67
2021/06/17 04:02:46;;;;;;;9.87;8.80;;;26.70;53.10;;;;;;5006873;28;20204;-67
2021/06/17 04:05:15;;;;;;;9.13;8.33;;;26.70;53.20;;;;;;5008537;28;20188;-67
2021/06/17 04:07:50;;;;;;;8.97;8.27;;;26.70;53.10;;;;;;5008827;28;20251;-67
2021/06/17 04:10:22;;;;;;;10.23;8.03;;;26.70;53.20;;;;;;5006361;28;20193;-66
2021/06/17 04:13:02;;;;;;;8.57;7.77;;;26.70;53.20;;;;;;5008010;28;20632;-66
2021/06/17 04:15:43;;;;;;;10.37;8.30;;;26.70;53.30;;;;;;5008277;28;20236;-67
2021/06/17 04:18:12;;;;;;;9.23;8.43;;;26.70;53.40;;;;;;5006301;28;20282;-67
2021/06/17 04:20:46;;;;;;;9.47;8.07;;;26.60;53.50;;;;;;5010013;28;20203;-67
2021/06/17 04:23:19;;;;;;;9.63;7.93;;;26.70;53.80;;;;;;5007702;28;20628;-68
2021/06/17 04:25:49;;;;;;;9.17;8.37;;;26.70;53.90;;;;;;5010535;28;20262;-68
2021/06/17 04:28:21;;;;;;;9.60;8.60;;;26.70;53.90;;;;;;5006849;28;20699;-68
2021/06/17 04:30:53;;;;;;;8.70;7.90;;;26.70;53.80;;;;;;5011200;28;20192;-67
2021/06/17 04:33:25;;;;;;;9.60;7.87;;;26.70;53.90;;;;;;5007463;28;20258;-67
2021/06/17 04:35:59;;;;;;;9.20;8.00;;;26.70;53.80;;;;;;4995984;28;20534;-66
2021/06/17 04:38:32;;;;;;;9.80;8.30;;;26.70;53.90;;;;;;5009058;28;20222;-66
2021/06/17 04:41:05;;;;;;;8.20;7.40;;;26.70;53.90;;;;;;5010011;28;20211;-68
2021/06/17 04:43:35;;;;;;;8.30;7.50;;;26.70;53.60;;;;;;5006391;28;20206;-68
2021/06/17 04:46:03;;;;;;;10.03;7.20;;;26.70;53.50;;;;;;5002252;28;20210;-68
2021/06/17 04:48:37;;;;;;;10.03;7.47;;;26.70;53.50;;;;;;4992359;28;20216;-68
2021/06/17 04:51:12;;;;;;;9.40;7.50;;;26.70;53.60;;;;;;5008742;28;20199;-68
2021/06/17 04:53:40;;;;;;;12.87;8.00;;;26.70;53.70;;;;;;5002521;28;20215;-68
2021/06/17 04:56:11;;;;;;;8.80;7.53;;;26.60;53.80;;;;;;5001728;28;20655;-67
2021/06/17 04:58:39;;;;;;;9.60;8.67;;;26.60;54.00;;;;;;5004134;28;20230;-67
2021/06/17 05:01:11;;;;;;;11.10;8.53;;;26.60;54.10;;;;;;5002397;28;20558;-67
2021/06/17 05:03:42;;;;;;;11.00;8.77;;;26.70;54.30;;;;;;4996941;28;20285;-67
2021/06/17 05:06:16;;;;;;;16.37;8.40;;;26.70;54.30;;;;;;5004303;28;20208;-68
2021/06/17 05:11:37;;;;;;;10.33;7.90;;;26.70;54.80;;;;;;5005360;28;20214;-66
2021/06/17 05:14:06;;;;;;;13.50;8.50;;;26.70;54.80;;;;;;5006497;28;20231;-66
2021/06/17 05:16:35;;;;;;;11.80;7.83;;;26.70;54.70;;;;;;5004597;28;20219;-66
2021/06/17 05:19:04;;;;;;;11.07;8.37;;;26.70;54.70;;;;;;5007492;28;20200;-67
2021/06/17 05:21:33;;;;;;;9.23;7.53;;;26.70;54.60;;;;;;5005609;28;20625;-66
2021/06/17 05:24:06;;;;;;;11.07;8.37;;;26.70;54.60;;;;;;5000556;28;20247;-66
2021/06/17 05:26:35;;;;;;;10.13;7.40;;;26.60;54.50;;;;;;5009348;28;20198;-66
2021/06/17 05:29:09;;;;;;;10.53;7.53;;;26.70;54.60;;;;;;5005075;28;20204;-65
2021/06/17 05:31:39;;;;;;;8.57;7.67;;;26.70;54.60;;;;;;5009367;28;20187;-65
2021/06/17 05:34:11;;;;;;;9.13;7.23;;;26.70;54.60;;;;;;5009466;28;20618;-65
2021/06/17 05:36:41;;;;;;;11.70;8.30;;;26.70;54.60;;;;;;5011193;28;20203;-66
2021/06/17 05:39:13;;;;;;;36.20;13.17;;;26.60;54.70;;;;;;4994709;28;20220;-68
2021/06/17 05:41:44;;;;;;;24.50;11.18;;;26.70;55.20;;;;;;4982757;28;20917;-69
2021/06/17 05:44:14;;;;;;;16.37;8.67;;;26.70;55.00;;;;;;5007848;28;20617;-69
2021/06/17 05:46:45;;;;;;;10.07;8.20;;;26.70;54.80;;;;;;5007186;28;20207;-74
2021/06/17 05:49:14;;;;;;;10.57;8.10;;;26.80;55.20;;;;;;5008485;28;20214;-73
2021/06/17 05:51:43;;;;;;;12.53;7.67;;;26.80;55.40;;;;;;5002049;28;20625;-72
2021/06/17 05:54:15;;;;;;;9.27;7.47;;;26.90;55.00;;;;;;5006409;28;20199;-70
2021/06/17 05:56:47;;;;;;;9.07;7.27;;;27.00;54.80;;;;;;5006155;28;20579;-69
2021/06/17 05:59:19;;;;;;;8.40;7.57;;;27.00;54.60;;;;;;5009777;28;20203;-70
2021/06/17 06:01:50;;;;;;;10.03;7.60;;;27.10;54.60;;;;;;5006637;28;20192;-70
2021/06/17 06:04:23;;;;;;;9.97;7.13;;;27.10;54.10;;;;;;5004299;28;20239;-71
2021/06/17 06:06:58;;;;;;;8.43;7.23;;;27.20;54.70;;;;;;5010599;28;20277;-70
2021/06/17 06:09:30;;;;;;;9.00;7.07;;;27.20;54.10;;;;;;4998893;28;20196;-71
2021/06/17 06:12:04;;;;;;;7.93;7.23;;;27.20;53.80;;;;;;5005715;28;20212;-71
2021/06/17 06:14:32;;;;;;;10.00;6.80;;;27.30;53.80;;;;;;5008828;28;20235;-71
2021/06/17 06:16:59;;;;;;;8.47;7.20;;;27.30;54.20;;;;;;5003302;28;20204;-72
2021/06/17 06:19:30;;;;;;;9.00;7.43;;;27.40;53.70;;;;;;5005644;28;20199;-72
2021/06/17 06:22:04;;;;;;;6.90;6.30;;;27.50;53.60;;;;;;5001617;28;20204;-73
2021/06/17 06:24:38;;;;;;;10.27;6.73;;;27.50;53.40;;;;;;5009084;28;20199;-74
2021/06/17 06:27:30;;;;;;;8.00;6.47;;;27.50;53.20;;;;;;5005062;28;20203;-72
2021/06/17 06:30:03;;;;;;;8.47;6.27;;;27.60;53.20;;;;;;5012941;28;20522;-72
2021/06/17 06:32:33;;;;;;;7.07;6.33;;;27.60;53.00;;;;;;5004783;28;20196;-69
2021/06/17 06:35:09;;;;;;;8.93;6.40;;;27.60;52.90;;;;;;5007069;28;20300;-71
2021/06/17 06:37:50;;;;;;;7.03;6.33;;;27.70;53.00;;;;;;5005967;28;20664;-70
2021/06/17 06:40:25;;;;;;;9.23;6.10;;;27.70;52.40;;;;;;4999557;28;20222;-71
2021/06/17 06:42:56;;;;;;;6.77;5.73;;;27.70;52.10;;;;;;5003803;28;20211;-72
2021/06/17 06:45:34;;;;;;;7.10;5.70;;;27.80;52.10;;;;;;5013612;28;20216;-69
2021/06/17 06:48:04;;;;;;;10.73;5.87;;;27.80;51.70;;;;;;5003561;28;20573;-70
2021/06/17 06:50:38;;;;;;;8.33;6.07;;;27.80;51.50;;;;;;5006355;28;20660;-69
2021/06/17 06:53:16;;;;;;;12.30;5.97;;;27.90;51.50;;;;;;5003912;28;20219;-72
2021/06/17 06:55:46;;;;;;;7.63;5.10;;;27.90;54.00;;;;;;5004540;28;20240;-71
2021/06/17 06:58:15;;;;;;;6.83;4.77;;;27.60;48.00;;;;;;5009612;28;20617;-71
2021/06/17 07:01:07;;;;;;;6.10;5.03;;;27.30;46.40;;;;;;5007132;28;20302;-66
2021/06/17 07:03:37;;;;;;;5.17;4.67;;;27.00;44.70;;;;;;5006204;28;20215;-67
2021/06/17 07:06:07;;;;;;;8.00;4.77;;;26.70;43.90;;;;;;5005668;28;20203;-65
2021/06/17 07:08:36;;;;;;;9.43;4.63;;;26.50;43.90;;;;;;5006232;28;20213;-64
2021/06/17 07:11:03;;;;;;;4.97;4.30;;;26.20;44.00;;;;;;5010017;28;20629;-66
2021/06/17 07:13:32;;;;;;;4.50;4.10;;;26.00;44.80;;;;;;5009271;28;20188;-67
2021/06/17 07:16:03;;;;;;;5.70;4.53;;;25.90;44.50;;;;;;5000902;28;20245;-65
2021/06/17 07:18:34;;;;;;;6.17;4.20;;;25.80;44.80;;;;;;5008750;28;20247;-65
2021/06/17 07:21:05;;;;;;;7.77;4.50;;;25.70;45.00;;;;;;5004745;28;20210;-65
2021/06/17 07:23:34;;;;;;;4.70;4.07;;;25.70;45.20;;;;;;5006743;28;20672;-66
2021/06/17 07:26:06;;;;;;;5.80;3.97;;;25.60;45.20;;;;;;5005288;28;20211;-67
2021/06/17 07:28:36;;;;;;;4.93;3.90;;;25.60;45.30;;;;;;5004290;28;20235;-67
2021/06/17 07:31:06;;;;;;;5.53;4.00;;;25.50;45.20;;;;;;5004207;28;20219;-65
2021/06/17 07:33:38;;;;;;;4.73;3.77;;;25.50;45.30;;;;;;5007376;28;20191;-67
2021/06/17 07:36:08;;;;;;;7.10;3.93;;;25.40;45.10;;;;;;5003621;28;20196;-66
2021/06/17 07:38:36;;;;;;;5.37;3.83;;;25.40;45.00;;;;;;5003276;28;20273;-66
2021/06/17 07:41:05;;;;;;;3.60;3.30;;;25.30;44.90;;;;;;5001309;28;20820;-65
2021/06/17 07:43:36;;;;;;;3.97;3.63;;;25.30;44.70;;;;;;5008316;28;20261;-65
2021/06/17 07:46:05;;;;;;;4.30;3.40;;;25.20;44.50;;;;;;5002032;28;20238;-65
2021/06/17 07:48:38;;;;;;;5.83;3.63;;;25.20;44.60;;;;;;5007279;28;20243;-64
2021/06/17 07:51:09;;;;;;;6.47;3.20;;;25.10;44.40;;;;;;5005517;28;20646;-63
2021/06/17 07:53:40;;;;;;;3.67;3.13;;;25.10;44.30;;;;;;5009932;28;20249;-65
2021/06/17 07:56:15;;;;;;;3.60;3.30;;;25.00;44.60;;;;;;5007423;28;20226;-65
2021/06/17 07:58:49;;;;;;;3.50;3.17;;;25.00;44.40;;;;;;5008548;28;20208;-68
2021/06/17 08:01:21;;;;;;;3.40;3.10;;;24.90;44.30;;;;;;5008395;28;20192;-68
2021/06/17 08:03:52;;;;;;;3.10;2.77;;;24.90;44.40;;;;;;5007874;28;20253;-68
2021/06/17 08:06:21;;;;;;;4.30;3.13;;;24.80;44.30;;;;;;4990520;28;20199;-69
2021/06/17 08:08:53;;;;;;;4.17;2.70;;;24.80;44.30;;;;;;5009891;28;20227;-68
2021/06/17 08:11:23;;;;;;;3.30;3.00;;;24.70;44.50;;;;;;5008270;28;20275;-68
2021/06/17 08:14:21;;;;;;;3.57;3.27;;;24.70;44.40;;;;;;5009123;28;20326;-69
2021/06/17 08:16:54;;;;;;;3.87;2.77;;;24.70;45.10;;;;;;5008884;28;20200;-68
2021/06/17 08:19:32;;;;;;;4.97;3.20;;;24.70;44.40;;;;;;5008270;28;20207;-69
2021/06/17 08:22:24;;;;;;;3.23;2.93;;;24.70;45.10;;;;;;5008641;28;20200;-67
2021/06/17 08:24:57;;;;;;;4.33;2.90;;;24.80;52.50;;;;;;5005090;28;20219;-67
2021/06/17 08:27:29;;;;;;;3.50;3.00;;;25.00;55.80;;;;;;5017643;28;20202;-68
2021/06/17 08:29:59;;;;;;;3.10;2.80;;;25.10;58.00;;;;;;5003301;28;20204;-69
2021/06/17 08:32:35;;;;;;;4.60;2.67;;;25.30;59.70;;;;;;5011781;28;20199;-68
2021/06/17 08:35:07;;;;;;;4.53;3.20;;;25.40;61.70;;;;;;5005767;28;20350;-65
2021/06/17 08:37:38;;;;;;;3.80;2.93;;;25.60;62.20;;;;;;5006322;28;20211;-65
2021/06/17 08:40:09;;;;;;;3.33;3.07;;;25.70;63.10;;;;;;5005143;28;20221;-68
2021/06/17 08:42:37;;;;;;;3.77;3.20;;;25.80;64.00;;;;;;5005700;28;20250;-68
2021/06/17 08:45:11;;;;;;;3.87;3.00;;;25.90;64.70;;;;;;5005505;28;20205;-68
2021/06/17 08:47:42;;;;;;;3.50;3.20;;;26.00;65.30;;;;;;5009995;28;20594;-68
2021/06/17 08:50:16;;;;;;;4.87;3.47;;;26.10;65.80;;;;;;5004718;28;20195;-69
2021/06/17 08:52:47;;;;;;;4.00;3.00;;;26.20;66.10;;;;;;5008451;28;20326;-67
2021/06/17 08:55:29;;;;;;;3.50;2.93;;;26.30;66.50;;;;;;5005940;28;20626;-68
2021/06/17 08:57:59;;;;;;;3.50;3.10;;;26.40;66.50;;;;;;5025043;28;20207;-66
2021/06/17 09:00:34;;;;;;;3.40;3.10;;;26.50;66.50;;;;;;5008934;28;20222;-68
2021/06/17 09:03:17;;;;;;;4.33;3.07;;;26.60;66.40;;;;;;5007778;28;20658;-69
2021/06/17 09:05:54;;;;;;;4.73;3.13;;;26.70;66.50;;;;;;5011741;28;20219;-69
2021/06/17 09:08:31;;;;;;;3.70;2.93;;;26.80;66.30;;;;;;5011184;28;20770;-68
2021/06/17 09:11:20;;;;;;;4.63;2.90;;;26.90;66.10;;;;;;5007502;28;20604;-67
2021/06/17 09:13:52;;;;;;;7.17;2.70;;;27.00;65.70;;;;;;5008112;28;20202;-68
2021/06/17 09:16:27;;;;;;;5.97;2.70;;;27.10;65.10;;;;;;5011782;28;20248;-66
2021/06/17 09:19:31;;;;;;;4.07;2.83;;;27.20;64.50;;;;;;5014967;28;20210;-66
2021/06/17 09:22:04;;;;;;;4.23;2.50;;;27.30;61.10;;;;;;5007687;28;20227;-68
2021/06/17 09:24:35;;;;;;;3.30;2.97;;;27.20;53.50;;;;;;5008003;28;20725;-69
2021/06/17 09:27:38;;;;;;;3.20;2.73;;;27.00;54.10;;;;;;4992900;28;20649;-68
2021/06/17 09:30:19;;;;;;;4.63;3.30;;;26.90;59.60;;;;;;5014629;28;20211;-68
2021/06/17 09:33:11;;;;;;;3.60;3.00;;;27.00;63.00;;;;;;5013964;28;20224;-66
2021/06/17 09:35:58;;;;;;;3.03;2.80;;;27.00;64.30;;;;;;5014711;28;20273;-67
2021/06/17 09:38:28;;;;;;;4.07;3.20;;;27.20;64.00;;;;;;5007952;28;20208;-67
2021/06/17 09:40:56;;;;;;;3.90;2.67;;;27.20;63.30;;;;;;5010583;28;20198;-68
2021/06/17 09:43:41;;;;;;;4.17;2.83;;;27.40;62.80;;;;;;5001333;28;20780;-68
2021/06/17 09:46:13;;;;;;;6.67;3.00;;;27.50;62.50;;;;;;5010039;28;20222;-68
2021/06/17 09:48:45;;;;;;;6.23;3.10;;;27.60;62.10;;;;;;5004140;28;20262;-67
2021/06/17 09:51:38;;;;;;;4.07;2.70;;;27.80;61.60;;;;;;4986879;28;20359;-68
2021/06/17 09:54:21;;;;;;;4.07;2.70;;;27.90;61.10;;;;;;5008644;28;20686;-67
2021/06/17 09:57:01;;;;;;;5.23;3.10;;;28.00;60.80;;;;;;5010691;28;20203;-68
2021/06/17 09:59:45;;;;;;;2.87;2.60;;;28.10;60.60;;;;;;5013732;28;21773;-65
2021/06/17 10:02:32;;;;;;;5.30;2.70;;;28.10;58.30;;;;;;5008477;28;20234;-65
2021/06/17 10:05:19;;;;;;;5.60;2.73;;;28.00;51.80;;;;;;5005855;28;20208;-65
2021/06/17 10:07:50;;;;;;;2.90;2.50;;;27.60;48.50;;;;;;5005867;28;20206;-65
2021/06/17 10:10:22;;;;;;;2.87;2.67;;;27.40;46.90;;;;;;5006101;28;20226;-65
2021/06/17 10:12:52;;;;;;;4.60;3.20;;;27.10;47.20;;;;;;4984918;28;20258;-65
2021/06/17 10:15:25;;;;;;;4.00;3.60;;;26.90;47.40;;;;;;5007398;28;20240;-66
2021/06/17 10:18:08;;;;;;;3.20;2.90;;;26.70;47.30;;;;;;5006740;28;20235;-65
2021/06/17 10:20:39;;;;;;;3.57;3.27;;;26.60;47.40;;;;;;4997671;28;20235;-65
2021/06/17 10:23:13;;;;;;;3.43;3.13;;;26.50;47.60;;;;;;5006269;28;20652;-65
2021/06/17 10:25:46;;;;;;;3.23;3.00;;;26.40;47.70;;;;;;5007142;28;20199;-65
2021/06/17 10:29:00;;;;;;;3.93;3.30;;;26.30;47.60;;;;;;5008031;28;20192;-64
2021/06/17 10:31:39;;;;;;;5.40;3.23;;;26.30;47.60;;;;;;5015089;28;20208;-67
2021/06/17 10:34:34;;;;;;;5.07;3.40;;;26.20;49.60;;;;;;5014871;28;20196;-66
2021/06/17 10:37:30;;;;;;;4.40;3.80;;;26.20;50.00;;;;;;5016415;28;20692;-64
2021/06/17 10:40:23;;;;;;;5.53;3.10;;;26.20;49.30;;;;;;5013471;28;20283;-66
2021/06/17 10:42:57;;;;;;;3.50;3.20;;;26.20;49.50;;;;;;5011158;28;20287;-68
2021/06/17 10:45:45;;;;;;;6.07;3.10;;;26.20;48.70;;;;;;4999354;28;20286;-67
2021/06/17 10:48:24;;;;;;;4.33;3.57;;;26.10;48.80;;;;;;5004723;28;20220;-66
2021/06/17 10:51:14;;;;;;;3.50;3.20;;;26.20;48.20;;;;;;4993039;28;20506;-68
2021/06/17 10:53:46;;;;;;;4.47;3.50;;;26.10;48.40;;;;;;5007750;28;20210;-67
2021/06/17 10:56:20;;;;;;;5.63;3.37;;;26.10;47.90;;;;;;5006542;28;20613;-66
2021/06/17 10:59:12;;;;;;;3.60;3.27;;;26.00;47.70;;;;;;5008764;28;20208;-64
2021/06/17 11:01:45;;;;;;;5.33;3.47;;;26.00;47.50;;;;;;5012376;28;20208;-68
2021/06/17 11:04:44;;;;;;;6.17;3.37;;;26.00;47.40;;;;;;5008206;28;20207;-65
2021/06/17 11:07:27;;;;;;;3.47;3.17;;;26.00;47.30;;;;;;5005467;28;20231;-65
2021/06/17 11:10:01;;;;;;;3.57;3.27;;;26.00;47.30;;;;;;5009492;28;20216;-65
2021/06/17 11:12:44;;;;;;;3.70;3.07;;;25.90;47.40;;;;;;5005368;28;20215;-65
2021/06/17 11:15:37;;;;;;;6.57;3.07;;;25.90;47.20;;;;;;5003432;28;20321;-63
2021/06/17 11:18:07;;;;;;;4.47;2.97;;;25.90;47.00;;;;;;5007841;28;20192;-66
2021/06/17 11:20:39;;;;;;;3.50;3.20;;;26.00;47.20;;;;;;5007034;28;20204;-66
2021/06/17 11:23:10;;;;;;;3.30;3.00;;;25.90;47.10;;;;;;5006568;28;20212;-67
2021/06/17 11:25:59;;;;;;;4.33;2.80;;;25.90;47.00;;;;;;5005463;28;20690;-67
2021/06/17 11:28:49;;;;;;;5.70;3.27;;;25.90;47.60;;;;;;5000890;28;20195;-67
2021/06/17 11:31:36;;;;;;;5.70;2.90;;;26.00;54.50;;;;;;5007404;28;20206;-66
2021/06/17 11:34:09;;;;;;;4.57;3.00;;;26.10;53.20;;;;;;5008205;28;20208;-66
2021/06/17 11:36:54;;;;;;;3.37;3.00;;;26.10;49.10;;;;;;5003142;28;20204;-64
2021/06/17 11:39:37;;;;;;;3.70;2.90;;;26.10;47.60;;;;;;5000270;28;20286;-64
2021/06/17 11:42:19;;;;;;;6.67;2.90;;;26.10;49.50;;;;;;5009478;28;20219;-64
2021/06/17 11:45:05;;;;;;;3.93;3.20;;;26.10;50.40;;;;;;4991391;28;20208;-64
2021/06/17 11:47:48;;;;;;;3.13;2.83;;;26.10;50.80;;;;;;4991221;28;20207;-65
2021/06/17 11:50:22;;;;;;;5.10;3.03;;;26.20;51.10;;;;;;5006113;28;20224;-64
2021/06/17 11:52:55;;;;;;;6.80;3.07;;;26.20;51.20;;;;;;5008519;28;20204;-64
2021/06/17 11:55:25;;;;;;;4.10;2.80;;;26.20;51.30;;;;;;5001965;28;20396;-64
2021/06/17 11:58:07;;;;;;;3.03;2.73;;;26.30;51.40;;;;;;4990916;28;20549;-63
2021/06/17 12:00:37;;;;;;;6.83;3.20;;;26.30;51.20;;;;;;5013278;28;20238;-66
2021/06/17 12:03:19;;;;;;;5.17;2.87;;;26.30;51.20;;;;;;5008656;28;20267;-66
2021/06/17 12:05:48;;;;;;;4.53;2.63;;;26.30;50.20;;;;;;5007447;28;20242;-66
2021/06/17 12:08:29;;;;;;;2.93;2.70;;;26.30;49.30;;;;;;5006687;28;20501;-65
2021/06/17 12:11:00;;;;;;;5.53;2.70;;;26.30;48.90;;;;;;5007693;28;20203;-65
2021/06/17 12:13:27;;;;;;;4.03;2.50;;;26.30;48.40;;;;;;4997116;28;20211;-65
2021/06/17 12:15:59;;;;;;;4.03;2.40;;;26.30;48.20;;;;;;4991455;28;20675;-65
2021/06/17 12:18:42;;;;;;;3.93;2.67;;;26.30;48.00;;;;;;5005113;28;20223;-64
2021/06/17 12:21:20;;;;;;;3.40;2.50;;;26.20;47.70;;;;;;5007408;28;20191;-64
2021/06/17 12:23:50;;;;;;;3.90;2.20;;;26.20;48.10;;;;;;5001557;28;20211;-65
2021/06/17 12:26:21;;;;;;;2.60;2.40;;;26.20;48.40;;;;;;5007270;28;20820;-65
2021/06/17 12:29:05;;;;;;;4.30;2.40;;;26.20;48.50;;;;;;5005004;28;20211;-66
2021/06/17 12:31:36;;;;;;;4.17;2.33;;;26.30;48.70;;;;;;5005003;28;20508;-66
2021/06/17 12:34:14;;;;;;;6.20;2.10;;;26.30;49.00;;;;;;4982507;28;20212;-68
2021/06/17 12:36:46;;;;;;;5.33;2.47;;;26.30;48.90;;;;;;4994057;28;20571;-68
2021/06/17 12:39:21;;;;;;;2.40;2.20;;;26.30;48.80;;;;;;5004863;28;20199;-66
2021/06/17 12:41:51;;;;;;;2.90;2.17;;;26.30;48.90;;;;;;5005485;28;20858;-69
2021/06/17 12:44:39;;;;;;;6.77;2.33;;;26.30;49.10;;;;;;5004811;28;20221;-68
2021/06/17 12:47:27;;;;;;;4.97;2.33;;;26.30;48.90;;;;;;5004673;28;20266;-69
2021/06/17 12:53:00;;;;;;;4.97;2.30;;;26.30;47.70;;;;;;5004872;28;20290;-70
2021/06/17 12:55:39;;;;;;;4.47;2.30;;;26.30;47.10;;;;;;4998234;28;20206;-71
2021/06/17 12:58:13;;;;;;;4.40;2.13;;;26.20;46.70;;;;;;5003123;28;20206;-71
2021/06/17 13:01:05;;;;;;;3.83;2.17;;;26.20;46.80;;;;;;5002141;28;20354;-69
2021/06/17 13:03:37;;;;;;;3.77;1.90;;;26.20;46.60;;;;;;5003218;28;20245;-68
2021/06/17 13:06:07;;;;;;;3.10;2.20;;;26.20;46.70;;;;;;5007866;28;20203;-66
2021/06/17 13:08:47;;;;;;;3.63;1.90;;;26.20;46.40;;;;;;5005932;28;20204;-68
2021/06/17 13:11:30;;;;;;;3.73;2.17;;;26.20;46.50;;;;;;4989240;28;20211;-68
2021/06/17 13:14:22;;;;;;;4.17;2.10;;;26.20;47.00;;;;;;5009380;28;20745;-71
2021/06/17 13:17:06;;;;;;;4.87;1.80;;;26.10;47.10;;;;;;5010889;28;20226;-66
2021/06/17 13:19:48;;;;;;;2.90;2.07;;;26.10;47.50;;;;;;5006435;28;20208;-68
2021/06/17 13:22:24;;;;;;;4.77;1.97;;;26.10;47.50;;;;;;5007872;28;20196;-67
2021/06/17 13:25:09;;;;;;;2.80;1.80;;;26.10;47.70;;;;;;5002972;28;20200;-65
2021/06/17 13:27:40;;;;;;;6.67;2.27;;;26.10;47.70;;;;;;5005405;28;20223;-66
2021/06/17 13:30:34;;;;;;;3.93;1.80;;;26.20;47.70;;;;;;5003971;28;20216;-71
2021/06/17 13:33:10;;;;;;;4.27;1.90;;;26.20;47.70;;;;;;5016290;28;20246;-69